sensor_id;sensor_type;location;lat;lon;timestamp;P1;durP1;ratioP1;P2;durP2;ratioP2
10116;SDS011;5098;48.792;9.012;2023-04-16T00:00:32;17.30;;;13.07;;
10116;SDS011;5098;48.792;9.012;2023-04-16T00:02:58;16.63;;;13.67;;
10116;SDS011;5098;48.792;9.012;2023-04-16T00:05:24;16.13;;;14.30;;
10116;SDS011;5098;48.792;9.012;2023-04-16T00:07:51;16.80;;;13.70;;
10116;SDS011;5098;48.792;9.012;2023-04-16T00:10:17;15.47;;;13.77;;
10116;SDS011;5098;48.792;9.012;2023-04-16T00:12:43;14.90;;;13.20;;
10116;SDS011;5098;48.792;9.012;2023-04-16T00:15:09;16.03;;;13.40;;
10116;SDS011;5098;48.792;9.012;2023-04-16T00:17:36;66.47;;;45.25;;
10116;SDS011;5098;48.792;9.012;2023-04-16T00:20:02;39.10;;;28.92;;
10116;SDS011;5098;48.792;9.012;2023-04-16T00:22:28;50.47;;;39.15;;
10116;SDS011;5098;48.792;9.012;2023-04-16T00:24:54;17.33;;;14.48;;
10116;SDS011;5098;48.792;9.012;2023-04-16T00:27:20;30.13;;;22.15;;
10116;SDS011;5098;48.792;9.012;2023-04-16T00:29:46;81.17;;;46.97;;
10116;SDS011;5098;48.792;9.012;2023-04-16T00:32:13;15.65;;;13.95;;
10116;SDS011;5098;48.792;9.012;2023-04-16T00:34:39;14.82;;;12.95;;
10116;SDS011;5098;48.792;9.012;2023-04-16T00:37:05;17.48;;;13.90;;
10116;SDS011;5098;48.792;9.012;2023-04-16T00:39:31;15.70;;;14.00;;
10116;SDS011;5098;48.792;9.012;2023-04-16T00:41:57;15.70;;;13.25;;
10116;SDS011;5098;48.792;9.012;2023-04-16T00:44:23;17.33;;;14.68;;
10116;SDS011;5098;48.792;9.012;2023-04-16T00:46:49;16.03;;;13.73;;
10116;SDS011;5098;48.792;9.012;2023-04-16T00:49:16;14.07;;;11.60;;
10116;SDS011;5098;48.792;9.012;2023-04-16T00:51:42;14.38;;;12.88;;
10116;SDS011;5098;48.792;9.012;2023-04-16T00:54:08;14.73;;;13.25;;
10116;SDS011;5098;48.792;9.012;2023-04-16T00:56:34;14.10;;;11.80;;
10116;SDS011;5098;48.792;9.012;2023-04-16T00:59:00;14.82;;;12.57;;
10116;SDS011;5098;48.792;9.012;2023-04-16T01:01:27;14.38;;;11.88;;
10116;SDS011;5098;48.792;9.012;2023-04-16T01:03:53;13.05;;;11.65;;
10116;SDS011;5098;48.792;9.012;2023-04-16T01:06:20;14.15;;;12.70;;
10116;SDS011;5098;48.792;9.012;2023-04-16T01:08:46;13.05;;;11.75;;
10116;SDS011;5098;48.792;9.012;2023-04-16T01:11:13;13.82;;;11.93;;
10116;SDS011;5098;48.792;9.012;2023-04-16T01:13:39;16.73;;;13.15;;
10116;SDS011;5098;48.792;9.012;2023-04-16T01:16:05;14.10;;;12.40;;
10116;SDS011;5098;48.792;9.012;2023-04-16T01:18:32;15.25;;;13.38;;
10116;SDS011;5098;48.792;9.012;2023-04-16T01:20:58;15.95;;;12.55;;
10116;SDS011;5098;48.792;9.012;2023-04-16T01:23:24;12.55;;;10.43;;
10116;SDS011;5098;48.792;9.012;2023-04-16T01:25:50;14.52;;;12.20;;
10116;SDS011;5098;48.792;9.012;2023-04-16T01:28:16;14.02;;;12.63;;
10116;SDS011;5098;48.792;9.012;2023-04-16T01:30:42;11.77;;;10.55;;
10116;SDS011;5098;48.792;9.012;2023-04-16T01:33:09;13.32;;;10.65;;
10116;SDS011;5098;48.792;9.012;2023-04-16T01:35:35;14.18;;;10.00;;
10116;SDS011;5098;48.792;9.012;2023-04-16T01:38:01;12.43;;;9.60;;
10116;SDS011;5098;48.792;9.012;2023-04-16T01:40:28;11.68;;;10.05;;
10116;SDS011;5098;48.792;9.012;2023-04-16T01:42:54;10.65;;;8.95;;
10116;SDS011;5098;48.792;9.012;2023-04-16T01:45:20;11.63;;;10.05;;
10116;SDS011;5098;48.792;9.012;2023-04-16T01:47:48;11.75;;;9.82;;
10116;SDS011;5098;48.792;9.012;2023-04-16T01:50:14;11.07;;;9.60;;
10116;SDS011;5098;48.792;9.012;2023-04-16T01:52:41;12.48;;;10.13;;
10116;SDS011;5098;48.792;9.012;2023-04-16T01:55:07;11.45;;;10.25;;
10116;SDS011;5098;48.792;9.012;2023-04-16T01:57:33;12.48;;;10.00;;
10116;SDS011;5098;48.792;9.012;2023-04-16T01:59:59;10.52;;;9.13;;
10116;SDS011;5098;48.792;9.012;2023-04-16T02:02:25;11.75;;;10.20;;
10116;SDS011;5098;48.792;9.012;2023-04-16T02:04:53;13.38;;;11.48;;
10116;SDS011;5098;48.792;9.012;2023-04-16T02:07:20;12.15;;;10.85;;
10116;SDS011;5098;48.792;9.012;2023-04-16T02:09:46;14.13;;;11.63;;
10116;SDS011;5098;48.792;9.012;2023-04-16T02:12:14;13.43;;;11.80;;
10116;SDS011;5098;48.792;9.012;2023-04-16T02:14:40;13.20;;;11.80;;
10116;SDS011;5098;48.792;9.012;2023-04-16T02:17:06;13.55;;;11.35;;
10116;SDS011;5098;48.792;9.012;2023-04-16T02:19:32;13.40;;;11.32;;
10116;SDS011;5098;48.792;9.012;2023-04-16T02:21:58;14.57;;;11.30;;
10116;SDS011;5098;48.792;9.012;2023-04-16T02:24:27;14.57;;;11.55;;
10116;SDS011;5098;48.792;9.012;2023-04-16T02:26:54;13.05;;;11.65;;
10116;SDS011;5098;48.792;9.012;2023-04-16T02:29:20;13.80;;;10.70;;
10116;SDS011;5098;48.792;9.012;2023-04-16T02:31:47;12.30;;;10.60;;
10116;SDS011;5098;48.792;9.012;2023-04-16T02:34:13;13.73;;;10.02;;
10116;SDS011;5098;48.792;9.012;2023-04-16T02:36:39;13.43;;;10.57;;
10116;SDS011;5098;48.792;9.012;2023-04-16T02:39:05;12.10;;;9.77;;
10116;SDS011;5098;48.792;9.012;2023-04-16T02:41:31;13.18;;;10.38;;
10116;SDS011;5098;48.792;9.012;2023-04-16T02:43:58;12.60;;;10.35;;
10116;SDS011;5098;48.792;9.012;2023-04-16T02:46:24;14.73;;;10.05;;
10116;SDS011;5098;48.792;9.012;2023-04-16T02:48:50;12.40;;;10.70;;
10116;SDS011;5098;48.792;9.012;2023-04-16T02:51:16;16.17;;;10.73;;
10116;SDS011;5098;48.792;9.012;2023-04-16T02:53:42;13.70;;;10.32;;
10116;SDS011;5098;48.792;9.012;2023-04-16T02:56:10;13.05;;;11.30;;
10116;SDS011;5098;48.792;9.012;2023-04-16T02:58:36;15.77;;;12.27;;
10116;SDS011;5098;48.792;9.012;2023-04-16T03:01:02;13.35;;;11.70;;
10116;SDS011;5098;48.792;9.012;2023-04-16T03:03:28;16.50;;;12.60;;
10116;SDS011;5098;48.792;9.012;2023-04-16T03:05:55;16.63;;;12.75;;
10116;SDS011;5098;48.792;9.012;2023-04-16T03:08:21;17.33;;;12.38;;
10116;SDS011;5098;48.792;9.012;2023-04-16T03:10:47;15.00;;;12.00;;
10116;SDS011;5098;48.792;9.012;2023-04-16T03:13:13;15.10;;;12.20;;
10116;SDS011;5098;48.792;9.012;2023-04-16T03:15:39;17.27;;;13.68;;
10116;SDS011;5098;48.792;9.012;2023-04-16T03:18:05;17.30;;;12.75;;
10116;SDS011;5098;48.792;9.012;2023-04-16T03:20:31;15.07;;;12.63;;
10116;SDS011;5098;48.792;9.012;2023-04-16T03:22:58;16.55;;;11.95;;
10116;SDS011;5098;48.792;9.012;2023-04-16T03:25:24;18.42;;;13.05;;
10116;SDS011;5098;48.792;9.012;2023-04-16T03:27:50;18.25;;;12.63;;
10116;SDS011;5098;48.792;9.012;2023-04-16T03:30:16;17.58;;;12.05;;
10116;SDS011;5098;48.792;9.012;2023-04-16T03:32:42;16.73;;;12.15;;
10116;SDS011;5098;48.792;9.012;2023-04-16T03:35:08;14.32;;;11.20;;
10116;SDS011;5098;48.792;9.012;2023-04-16T03:37:34;17.02;;;11.63;;
10116;SDS011;5098;48.792;9.012;2023-04-16T03:40:00;13.00;;;10.15;;
10116;SDS011;5098;48.792;9.012;2023-04-16T03:42:27;15.60;;;11.80;;
10116;SDS011;5098;48.792;9.012;2023-04-16T03:44:53;15.43;;;11.15;;
10116;SDS011;5098;48.792;9.012;2023-04-16T03:47:19;15.07;;;10.80;;
10116;SDS011;5098;48.792;9.012;2023-04-16T03:49:45;15.25;;;11.43;;
10116;SDS011;5098;48.792;9.012;2023-04-16T03:52:12;16.27;;;11.77;;
10116;SDS011;5098;48.792;9.012;2023-04-16T03:54:38;21.50;;;13.10;;
10116;SDS011;5098;48.792;9.012;2023-04-16T03:57:04;18.10;;;13.25;;
10116;SDS011;5098;48.792;9.012;2023-04-16T03:59:30;19.30;;;14.10;;
10116;SDS011;5098;48.792;9.012;2023-04-16T04:01:56;21.65;;;13.75;;
10116;SDS011;5098;48.792;9.012;2023-04-16T04:04:22;19.80;;;14.48;;
10116;SDS011;5098;48.792;9.012;2023-04-16T04:06:48;17.73;;;12.10;;
10116;SDS011;5098;48.792;9.012;2023-04-16T04:09:14;16.83;;;11.80;;
10116;SDS011;5098;48.792;9.012;2023-04-16T04:11:40;15.40;;;10.60;;
10116;SDS011;5098;48.792;9.012;2023-04-16T04:14:06;12.30;;;9.13;;
10116;SDS011;5098;48.792;9.012;2023-04-16T04:16:33;13.80;;;10.32;;
10116;SDS011;5098;48.792;9.012;2023-04-16T04:18:59;14.63;;;11.05;;
10116;SDS011;5098;48.792;9.012;2023-04-16T04:21:26;14.95;;;10.30;;
10116;SDS011;5098;48.792;9.012;2023-04-16T04:23:52;14.02;;;9.63;;
10116;SDS011;5098;48.792;9.012;2023-04-16T04:26:18;14.18;;;9.88;;
10116;SDS011;5098;48.792;9.012;2023-04-16T04:28:45;17.08;;;11.23;;
10116;SDS011;5098;48.792;9.012;2023-04-16T04:31:11;14.60;;;9.88;;
10116;SDS011;5098;48.792;9.012;2023-04-16T04:33:37;16.27;;;10.68;;
10116;SDS011;5098;48.792;9.012;2023-04-16T04:36:03;15.85;;;11.80;;
10116;SDS011;5098;48.792;9.012;2023-04-16T04:38:30;14.70;;;10.98;;
10116;SDS011;5098;48.792;9.012;2023-04-16T04:40:56;15.10;;;10.90;;
10116;SDS011;5098;48.792;9.012;2023-04-16T04:43:22;16.27;;;11.73;;
10116;SDS011;5098;48.792;9.012;2023-04-16T04:45:48;14.75;;;11.15;;
10116;SDS011;5098;48.792;9.012;2023-04-16T04:48:15;17.90;;;11.90;;
10116;SDS011;5098;48.792;9.012;2023-04-16T04:50:41;18.77;;;12.55;;
10116;SDS011;5098;48.792;9.012;2023-04-16T04:53:07;18.33;;;12.55;;
10116;SDS011;5098;48.792;9.012;2023-04-16T04:55:38;15.85;;;11.75;;
10116;SDS011;5098;48.792;9.012;2023-04-16T04:58:05;16.67;;;11.70;;
10116;SDS011;5098;48.792;9.012;2023-04-16T05:00:32;14.60;;;12.00;;
10116;SDS011;5098;48.792;9.012;2023-04-16T05:03:02;16.10;;;10.90;;
10116;SDS011;5098;48.792;9.012;2023-04-16T05:05:28;15.02;;;10.98;;
10116;SDS011;5098;48.792;9.012;2023-04-16T05:07:54;16.52;;;12.85;;
10116;SDS011;5098;48.792;9.012;2023-04-16T05:10:21;16.83;;;12.57;;
10116;SDS011;5098;48.792;9.012;2023-04-16T05:12:47;17.05;;;12.80;;
10116;SDS011;5098;48.792;9.012;2023-04-16T05:15:13;21.50;;;15.38;;
10116;SDS011;5098;48.792;9.012;2023-04-16T05:17:39;26.80;;;16.55;;
10116;SDS011;5098;48.792;9.012;2023-04-16T05:20:06;27.25;;;18.70;;
10116;SDS011;5098;48.792;9.012;2023-04-16T05:22:32;29.73;;;20.08;;
10116;SDS011;5098;48.792;9.012;2023-04-16T05:24:59;26.33;;;17.93;;
10116;SDS011;5098;48.792;9.012;2023-04-16T05:27:25;32.95;;;19.30;;
10116;SDS011;5098;48.792;9.012;2023-04-16T05:29:51;33.55;;;20.67;;
10116;SDS011;5098;48.792;9.012;2023-04-16T05:32:17;38.25;;;20.95;;
10116;SDS011;5098;48.792;9.012;2023-04-16T05:34:43;34.72;;;21.67;;
10116;SDS011;5098;48.792;9.012;2023-04-16T05:37:09;33.63;;;20.70;;
10116;SDS011;5098;48.792;9.012;2023-04-16T05:39:35;37.20;;;23.13;;
10116;SDS011;5098;48.792;9.012;2023-04-16T05:42:01;39.55;;;24.35;;
10116;SDS011;5098;48.792;9.012;2023-04-16T05:44:27;39.65;;;23.60;;
10116;SDS011;5098;48.792;9.012;2023-04-16T05:46:53;41.17;;;25.60;;
10116;SDS011;5098;48.792;9.012;2023-04-16T05:49:19;37.08;;;24.85;;
10116;SDS011;5098;48.792;9.012;2023-04-16T05:51:46;40.40;;;25.05;;
10116;SDS011;5098;48.792;9.012;2023-04-16T05:54:12;37.78;;;25.25;;
10116;SDS011;5098;48.792;9.012;2023-04-16T05:56:38;46.70;;;25.73;;
10116;SDS011;5098;48.792;9.012;2023-04-16T05:59:04;40.97;;;25.98;;
10116;SDS011;5098;48.792;9.012;2023-04-16T06:01:31;38.35;;;24.15;;
10116;SDS011;5098;48.792;9.012;2023-04-16T06:03:57;42.50;;;25.40;;
10116;SDS011;5098;48.792;9.012;2023-04-16T06:06:23;38.53;;;22.38;;
10116;SDS011;5098;48.792;9.012;2023-04-16T06:08:51;45.13;;;24.47;;
10116;SDS011;5098;48.792;9.012;2023-04-16T06:11:17;40.83;;;23.13;;
10116;SDS011;5098;48.792;9.012;2023-04-16T06:13:43;38.92;;;24.35;;
10116;SDS011;5098;48.792;9.012;2023-04-16T06:16:09;41.53;;;24.13;;
10116;SDS011;5098;48.792;9.012;2023-04-16T06:18:35;42.00;;;24.40;;
10116;SDS011;5098;48.792;9.012;2023-04-16T06:21:02;42.88;;;24.92;;
10116;SDS011;5098;48.792;9.012;2023-04-16T06:23:28;40.35;;;26.17;;
10116;SDS011;5098;48.792;9.012;2023-04-16T06:25:54;40.78;;;24.92;;
10116;SDS011;5098;48.792;9.012;2023-04-16T06:28:20;52.20;;;26.15;;
10116;SDS011;5098;48.792;9.012;2023-04-16T06:30:47;46.05;;;26.95;;
10116;SDS011;5098;48.792;9.012;2023-04-16T06:33:13;44.30;;;25.58;;
10116;SDS011;5098;48.792;9.012;2023-04-16T06:35:39;39.65;;;26.20;;
10116;SDS011;5098;48.792;9.012;2023-04-16T06:38:05;46.40;;;27.83;;
10116;SDS011;5098;48.792;9.012;2023-04-16T06:40:31;43.50;;;26.90;;
10116;SDS011;5098;48.792;9.012;2023-04-16T06:42:57;42.42;;;26.42;;
10116;SDS011;5098;48.792;9.012;2023-04-16T06:45:23;37.42;;;25.02;;
10116;SDS011;5098;48.792;9.012;2023-04-16T06:47:49;41.92;;;25.08;;
10116;SDS011;5098;48.792;9.012;2023-04-16T06:50:16;43.47;;;26.83;;
10116;SDS011;5098;48.792;9.012;2023-04-16T06:52:42;40.10;;;24.40;;
10116;SDS011;5098;48.792;9.012;2023-04-16T06:55:08;40.50;;;25.65;;
10116;SDS011;5098;48.792;9.012;2023-04-16T06:57:35;45.95;;;25.90;;
10116;SDS011;5098;48.792;9.012;2023-04-16T07:00:02;40.75;;;24.95;;
10116;SDS011;5098;48.792;9.012;2023-04-16T07:02:29;34.17;;;23.25;;
10116;SDS011;5098;48.792;9.012;2023-04-16T07:04:55;36.05;;;22.80;;
10116;SDS011;5098;48.792;9.012;2023-04-16T07:07:21;38.15;;;24.70;;
10116;SDS011;5098;48.792;9.012;2023-04-16T07:09:47;33.63;;;23.25;;
10116;SDS011;5098;48.792;9.012;2023-04-16T07:12:13;32.63;;;21.95;;
10116;SDS011;5098;48.792;9.012;2023-04-16T07:14:39;35.13;;;23.38;;
10116;SDS011;5098;48.792;9.012;2023-04-16T07:17:06;29.85;;;21.88;;
10116;SDS011;5098;48.792;9.012;2023-04-16T07:19:32;30.33;;;21.25;;
10116;SDS011;5098;48.792;9.012;2023-04-16T07:21:58;28.42;;;20.13;;
10116;SDS011;5098;48.792;9.012;2023-04-16T07:24:24;28.77;;;19.97;;
10116;SDS011;5098;48.792;9.012;2023-04-16T07:26:50;31.38;;;21.90;;
10116;SDS011;5098;48.792;9.012;2023-04-16T07:29:16;26.02;;;19.38;;
10116;SDS011;5098;48.792;9.012;2023-04-16T07:31:43;29.20;;;20.00;;
10116;SDS011;5098;48.792;9.012;2023-04-16T07:34:09;28.02;;;18.90;;
10116;SDS011;5098;48.792;9.012;2023-04-16T07:36:35;25.67;;;18.83;;
10116;SDS011;5098;48.792;9.012;2023-04-16T07:39:02;26.40;;;18.47;;
10116;SDS011;5098;48.792;9.012;2023-04-16T07:41:29;26.17;;;19.73;;
10116;SDS011;5098;48.792;9.012;2023-04-16T07:43:55;26.05;;;19.88;;
10116;SDS011;5098;48.792;9.012;2023-04-16T07:46:21;25.55;;;19.42;;
10116;SDS011;5098;48.792;9.012;2023-04-16T07:48:47;27.15;;;18.80;;
10116;SDS011;5098;48.792;9.012;2023-04-16T07:51:13;22.53;;;18.10;;
10116;SDS011;5098;48.792;9.012;2023-04-16T07:53:40;24.17;;;18.60;;
10116;SDS011;5098;48.792;9.012;2023-04-16T07:56:07;23.20;;;18.50;;
10116;SDS011;5098;48.792;9.012;2023-04-16T07:58:33;21.48;;;17.13;;
10116;SDS011;5098;48.792;9.012;2023-04-16T08:00:59;26.23;;;18.05;;
10116;SDS011;5098;48.792;9.012;2023-04-16T08:03:26;25.90;;;19.23;;
10116;SDS011;5098;48.792;9.012;2023-04-16T08:05:52;26.27;;;19.15;;
10116;SDS011;5098;48.792;9.012;2023-04-16T08:08:18;25.87;;;19.60;;
10116;SDS011;5098;48.792;9.012;2023-04-16T08:10:44;29.25;;;18.65;;
10116;SDS011;5098;48.792;9.012;2023-04-16T08:13:10;25.10;;;19.23;;
10116;SDS011;5098;48.792;9.012;2023-04-16T08:15:36;23.20;;;17.55;;
10116;SDS011;5098;48.792;9.012;2023-04-16T08:18:02;22.90;;;17.67;;
10116;SDS011;5098;48.792;9.012;2023-04-16T08:20:29;24.35;;;18.35;;
10116;SDS011;5098;48.792;9.012;2023-04-16T08:22:55;25.30;;;19.15;;
10116;SDS011;5098;48.792;9.012;2023-04-16T08:25:21;23.67;;;18.95;;
10116;SDS011;5098;48.792;9.012;2023-04-16T08:27:48;24.27;;;16.88;;
10116;SDS011;5098;48.792;9.012;2023-04-16T08:30:15;22.33;;;17.17;;
10116;SDS011;5098;48.792;9.012;2023-04-16T08:32:41;22.90;;;15.85;;
10116;SDS011;5098;48.792;9.012;2023-04-16T08:35:08;22.70;;;15.93;;
10116;SDS011;5098;48.792;9.012;2023-04-16T08:37:34;23.55;;;16.42;;
10116;SDS011;5098;48.792;9.012;2023-04-16T08:40:00;26.20;;;18.50;;
10116;SDS011;5098;48.792;9.012;2023-04-16T08:42:31;24.73;;;17.20;;
10116;SDS011;5098;48.792;9.012;2023-04-16T08:45:07;23.65;;;18.35;;
10116;SDS011;5098;48.792;9.012;2023-04-16T08:47:34;24.30;;;17.65;;
10116;SDS011;5098;48.792;9.012;2023-04-16T08:50:04;20.85;;;15.70;;
10116;SDS011;5098;48.792;9.012;2023-04-16T08:52:30;21.63;;;15.40;;
10116;SDS011;5098;48.792;9.012;2023-04-16T08:55:02;21.83;;;15.30;;
10116;SDS011;5098;48.792;9.012;2023-04-16T08:57:34;18.95;;;15.50;;
10116;SDS011;5098;48.792;9.012;2023-04-16T09:00:02;19.10;;;14.50;;
10116;SDS011;5098;48.792;9.012;2023-04-16T09:02:28;19.48;;;13.88;;
10116;SDS011;5098;48.792;9.012;2023-04-16T09:04:55;20.25;;;15.30;;
10116;SDS011;5098;48.792;9.012;2023-04-16T09:07:23;21.05;;;15.10;;
10116;SDS011;5098;48.792;9.012;2023-04-16T09:09:50;20.17;;;15.85;;
10116;SDS011;5098;48.792;9.012;2023-04-16T09:12:18;23.10;;;16.30;;
10116;SDS011;5098;48.792;9.012;2023-04-16T09:14:47;17.60;;;14.63;;
10116;SDS011;5098;48.792;9.012;2023-04-16T09:17:14;19.17;;;14.73;;
10116;SDS011;5098;48.792;9.012;2023-04-16T09:19:41;21.20;;;15.23;;
10116;SDS011;5098;48.792;9.012;2023-04-16T09:22:07;21.50;;;16.15;;
10116;SDS011;5098;48.792;9.012;2023-04-16T09:24:33;22.03;;;16.13;;
10116;SDS011;5098;48.792;9.012;2023-04-16T09:26:59;23.50;;;16.50;;
10116;SDS011;5098;48.792;9.012;2023-04-16T09:29:32;23.55;;;15.07;;
10116;SDS011;5098;48.792;9.012;2023-04-16T09:32:02;23.33;;;16.13;;
10116;SDS011;5098;48.792;9.012;2023-04-16T09:34:30;21.73;;;16.93;;
10116;SDS011;5098;48.792;9.012;2023-04-16T09:37:12;23.50;;;16.67;;
10116;SDS011;5098;48.792;9.012;2023-04-16T09:39:39;21.00;;;15.20;;
10116;SDS011;5098;48.792;9.012;2023-04-16T09:42:05;21.47;;;15.57;;
10116;SDS011;5098;48.792;9.012;2023-04-16T09:44:35;24.27;;;15.60;;
10116;SDS011;5098;48.792;9.012;2023-04-16T09:47:05;19.88;;;15.98;;
10116;SDS011;5098;48.792;9.012;2023-04-16T09:49:39;19.90;;;15.40;;
10116;SDS011;5098;48.792;9.012;2023-04-16T09:52:19;23.00;;;16.25;;
10116;SDS011;5098;48.792;9.012;2023-04-16T09:54:48;21.87;;;15.77;;
10116;SDS011;5098;48.792;9.012;2023-04-16T09:57:17;20.70;;;15.23;;
10116;SDS011;5098;48.792;9.012;2023-04-16T09:59:45;22.57;;;16.20;;
10116;SDS011;5098;48.792;9.012;2023-04-16T10:02:11;21.77;;;16.17;;
10116;SDS011;5098;48.792;9.012;2023-04-16T10:04:50;24.77;;;17.17;;
10116;SDS011;5098;48.792;9.012;2023-04-16T10:07:16;20.52;;;15.10;;
10116;SDS011;5098;48.792;9.012;2023-04-16T10:09:42;23.20;;;18.40;;
10116;SDS011;5098;48.792;9.012;2023-04-16T10:12:09;21.53;;;16.00;;
10116;SDS011;5098;48.792;9.012;2023-04-16T10:14:37;24.70;;;17.87;;
10116;SDS011;5098;48.792;9.012;2023-04-16T10:17:03;24.33;;;16.67;;
10116;SDS011;5098;48.792;9.012;2023-04-16T10:19:30;22.43;;;16.40;;
10116;SDS011;5098;48.792;9.012;2023-04-16T10:21:57;21.80;;;16.75;;
10116;SDS011;5098;48.792;9.012;2023-04-16T10:24:27;23.27;;;16.77;;
10116;SDS011;5098;48.792;9.012;2023-04-16T10:26:53;23.65;;;17.38;;
10116;SDS011;5098;48.792;9.012;2023-04-16T10:29:20;23.53;;;18.07;;
10116;SDS011;5098;48.792;9.012;2023-04-16T10:31:46;22.67;;;16.33;;
10116;SDS011;5098;48.792;9.012;2023-04-16T10:34:13;20.17;;;16.60;;
10116;SDS011;5098;48.792;9.012;2023-04-16T10:36:39;22.30;;;15.30;;
10116;SDS011;5098;48.792;9.012;2023-04-16T10:39:09;22.70;;;16.42;;
10116;SDS011;5098;48.792;9.012;2023-04-16T10:41:36;19.53;;;16.20;;
10116;SDS011;5098;48.792;9.012;2023-04-16T10:44:06;24.43;;;16.23;;
10116;SDS011;5098;48.792;9.012;2023-04-16T10:46:39;18.90;;;15.77;;
10116;SDS011;5098;48.792;9.012;2023-04-16T10:49:18;22.00;;;16.80;;
10116;SDS011;5098;48.792;9.012;2023-04-16T10:51:55;22.33;;;14.80;;
10116;SDS011;5098;48.792;9.012;2023-04-16T10:54:22;19.27;;;15.37;;
10116;SDS011;5098;48.792;9.012;2023-04-16T10:56:49;21.13;;;15.07;;
10116;SDS011;5098;48.792;9.012;2023-04-16T10:59:19;19.33;;;15.00;;
10116;SDS011;5098;48.792;9.012;2023-04-16T11:01:46;17.80;;;14.00;;
10116;SDS011;5098;48.792;9.012;2023-04-16T11:12:18;16.30;;;12.37;;
10116;SDS011;5098;48.792;9.012;2023-04-16T11:14:49;17.00;;;12.27;;
10116;SDS011;5098;48.792;9.012;2023-04-16T11:17:16;14.53;;;11.43;;
10116;SDS011;5098;48.792;9.012;2023-04-16T11:19:42;15.93;;;12.40;;
10116;SDS011;5098;48.792;9.012;2023-04-16T11:22:10;15.10;;;10.80;;
10116;SDS011;5098;48.792;9.012;2023-04-16T11:24:36;13.30;;;11.20;;
10116;SDS011;5098;48.792;9.012;2023-04-16T11:27:04;15.37;;;11.57;;
10116;SDS011;5098;48.792;9.012;2023-04-16T11:29:31;13.60;;;11.13;;
10116;SDS011;5098;48.792;9.012;2023-04-16T11:31:57;12.33;;;9.10;;
10116;SDS011;5098;48.792;9.012;2023-04-16T11:34:23;9.20;;;7.83;;
10116;SDS011;5098;48.792;9.012;2023-04-16T11:36:50;9.60;;;8.60;;
10116;SDS011;5098;48.792;9.012;2023-04-16T11:39:16;12.73;;;8.30;;
10116;SDS011;5098;48.792;9.012;2023-04-16T11:41:43;11.73;;;8.47;;
10116;SDS011;5098;48.792;9.012;2023-04-16T11:44:19;9.70;;;8.40;;
10116;SDS011;5098;48.792;9.012;2023-04-16T11:46:45;9.53;;;6.97;;
10116;SDS011;5098;48.792;9.012;2023-04-16T11:49:12;10.47;;;7.67;;
10116;SDS011;5098;48.792;9.012;2023-04-16T11:51:39;8.05;;;6.50;;
10116;SDS011;5098;48.792;9.012;2023-04-16T11:54:05;9.00;;;7.20;;
10116;SDS011;5098;48.792;9.012;2023-04-16T11:56:33;8.17;;;6.67;;
10116;SDS011;5098;48.792;9.012;2023-04-16T11:59:06;7.88;;;6.38;;
10116;SDS011;5098;48.792;9.012;2023-04-16T12:01:33;8.40;;;6.23;;
10116;SDS011;5098;48.792;9.012;2023-04-16T12:04:00;7.43;;;5.70;;
10116;SDS011;5098;48.792;9.012;2023-04-16T12:06:26;7.00;;;5.60;;
10116;SDS011;5098;48.792;9.012;2023-04-16T12:08:52;7.37;;;6.33;;
10116;SDS011;5098;48.792;9.012;2023-04-16T12:11:18;6.37;;;5.77;;
10116;SDS011;5098;48.792;9.012;2023-04-16T12:16:30;6.40;;;5.70;;
10116;SDS011;5098;48.792;9.012;2023-04-16T12:18:59;6.20;;;5.57;;
10116;SDS011;5098;48.792;9.012;2023-04-16T12:24:03;7.73;;;6.33;;
10116;SDS011;5098;48.792;9.012;2023-04-16T12:26:42;6.50;;;5.60;;
10116;SDS011;5098;48.792;9.012;2023-04-16T12:29:21;6.10;;;5.50;;
10116;SDS011;5098;48.792;9.012;2023-04-16T12:31:48;6.70;;;5.95;;
10116;SDS011;5098;48.792;9.012;2023-04-16T12:34:14;7.80;;;6.27;;
10116;SDS011;5098;48.792;9.012;2023-04-16T12:36:41;6.20;;;5.60;;
10116;SDS011;5098;48.792;9.012;2023-04-16T12:39:07;7.47;;;6.37;;
10116;SDS011;5098;48.792;9.012;2023-04-16T12:41:40;6.93;;;6.33;;
10116;SDS011;5098;48.792;9.012;2023-04-16T12:44:07;5.80;;;5.20;;
10116;SDS011;5098;48.792;9.012;2023-04-16T12:46:36;6.10;;;5.50;;
10116;SDS011;5098;48.792;9.012;2023-04-16T12:49:02;5.97;;;4.97;;
10116;SDS011;5098;48.792;9.012;2023-04-16T12:51:28;6.50;;;5.87;;
10116;SDS011;5098;48.792;9.012;2023-04-16T12:53:54;7.00;;;6.30;;
10116;SDS011;5098;48.792;9.012;2023-04-16T12:56:20;7.37;;;6.60;;
10116;SDS011;5098;48.792;9.012;2023-04-16T12:58:46;5.90;;;5.30;;
10116;SDS011;5098;48.792;9.012;2023-04-16T13:01:16;7.30;;;6.30;;
10116;SDS011;5098;48.792;9.012;2023-04-16T13:03:42;6.67;;;5.83;;
10116;SDS011;5098;48.792;9.012;2023-04-16T13:06:08;6.22;;;5.60;;
10116;SDS011;5098;48.792;9.012;2023-04-16T13:08:34;7.70;;;6.90;;
10116;SDS011;5098;48.792;9.012;2023-04-16T13:11:01;7.33;;;6.40;;
10116;SDS011;5098;48.792;9.012;2023-04-16T13:13:28;8.73;;;6.50;;
10116;SDS011;5098;48.792;9.012;2023-04-16T13:15:54;7.07;;;5.73;;
10116;SDS011;5098;48.792;9.012;2023-04-16T13:18:20;6.23;;;5.63;;
10116;SDS011;5098;48.792;9.012;2023-04-16T13:20:47;6.83;;;5.90;;
10116;SDS011;5098;48.792;9.012;2023-04-16T13:23:13;7.60;;;6.10;;
10116;SDS011;5098;48.792;9.012;2023-04-16T13:25:39;8.17;;;6.60;;
10116;SDS011;5098;48.792;9.012;2023-04-16T13:28:05;7.90;;;6.80;;
10116;SDS011;5098;48.792;9.012;2023-04-16T13:30:31;8.33;;;7.23;;
10116;SDS011;5098;48.792;9.012;2023-04-16T13:32:58;7.40;;;6.57;;
10116;SDS011;5098;48.792;9.012;2023-04-16T13:35:24;8.40;;;7.33;;
10116;SDS011;5098;48.792;9.012;2023-04-16T13:37:51;9.00;;;8.10;;
10116;SDS011;5098;48.792;9.012;2023-04-16T13:40:17;8.53;;;7.23;;
10116;SDS011;5098;48.792;9.012;2023-04-16T13:42:43;8.60;;;7.60;;
10116;SDS011;5098;48.792;9.012;2023-04-16T13:45:09;7.40;;;6.40;;
10116;SDS011;5098;48.792;9.012;2023-04-16T13:47:37;8.67;;;7.07;;
10116;SDS011;5098;48.792;9.012;2023-04-16T13:50:03;8.60;;;7.27;;
10116;SDS011;5098;48.792;9.012;2023-04-16T13:52:29;11.57;;;7.67;;
10116;SDS011;5098;48.792;9.012;2023-04-16T13:54:55;9.70;;;8.70;;
10116;SDS011;5098;48.792;9.012;2023-04-16T13:57:21;10.33;;;9.30;;
10116;SDS011;5098;48.792;9.012;2023-04-16T13:59:48;9.67;;;7.87;;
10116;SDS011;5098;48.792;9.012;2023-04-16T14:02:14;9.50;;;8.23;;
10116;SDS011;5098;48.792;9.012;2023-04-16T14:04:40;10.50;;;9.20;;
10116;SDS011;5098;48.792;9.012;2023-04-16T14:07:06;11.20;;;9.80;;
10116;SDS011;5098;48.792;9.012;2023-04-16T14:09:32;11.20;;;9.07;;
10116;SDS011;5098;48.792;9.012;2023-04-16T14:11:58;10.57;;;9.03;;
10116;SDS011;5098;48.792;9.012;2023-04-16T14:14:34;10.43;;;9.20;;
10116;SDS011;5098;48.792;9.012;2023-04-16T14:17:02;12.53;;;10.27;;
10116;SDS011;5098;48.792;9.012;2023-04-16T14:19:29;12.20;;;9.87;;
10116;SDS011;5098;48.792;9.012;2023-04-16T14:21:55;12.07;;;9.80;;
10116;SDS011;5098;48.792;9.012;2023-04-16T14:24:21;14.00;;;9.67;;
10116;SDS011;5098;48.792;9.012;2023-04-16T14:26:47;11.97;;;9.63;;
10116;SDS011;5098;48.792;9.012;2023-04-16T14:29:13;12.70;;;9.90;;
10116;SDS011;5098;48.792;9.012;2023-04-16T14:31:40;12.30;;;10.37;;
10116;SDS011;5098;48.792;9.012;2023-04-16T14:34:06;11.23;;;9.93;;
10116;SDS011;5098;48.792;9.012;2023-04-16T14:36:32;14.23;;;10.50;;
10116;SDS011;5098;48.792;9.012;2023-04-16T14:38:58;15.67;;;11.80;;
10116;SDS011;5098;48.792;9.012;2023-04-16T14:41:24;14.50;;;11.27;;
10116;SDS011;5098;48.792;9.012;2023-04-16T14:43:51;15.97;;;12.33;;
10116;SDS011;5098;48.792;9.012;2023-04-16T14:46:17;17.03;;;13.80;;
10116;SDS011;5098;48.792;9.012;2023-04-16T14:48:43;18.03;;;13.27;;